KCWA/CWA METAR and TAF weather

Enter ICAO airport designator
Station Type Date Time Source
KCWA METAR 2021/01/22 05:35 UTC NOAA

KCWA 220535Z AUTO 30010KT 10SM OVC027 M12/M17 A2990 RMK AO2


Station Type Date Time Source
KCWA Decoded METAR 2021/01/22 05:35 UTC NOAA

Mosinee / Central Wisconsin, WI, United States (KCWA) 44-47N 089-40W
Jan 22, 2021 - 12:35 AM EST / 2021.01.22 0535 UTC
Wind: from the WNW (300 degrees) at 12 MPH (10 KT):0
Visibility: 10 mile(s):0
Sky conditions: overcast
Temperature: 10 F (-12 C)
Windchill: -4 F (-20 C):1
Dew Point: 1 F (-17 C)
Relative Humidity: 66%
Pressure (altimeter): 29.9 in. Hg (1012 hPa)
ob: KCWA 220535Z AUTO 30010KT 10SM OVC027 M12/M17 A2990 RMK AO2
cycle: 5

Station Type Date Time Source
KCWA TAF 2021/01/22 06:22 UTC NOAA

TAF KCWA 220520Z 2206/2306 31012G21KT P6SM OVC028
FM221000 31009G15KT P6SM BKN025
TEMPO 2213/2215 SCT025
FM221500 30009KT P6SM SCT035
FM222300 28005KT P6SM SCT080
AMD LTD TO CLD VIS AND WIND TIL 221100

Example: see airport list